sensor_id;sensor_type;location;lat;lon;timestamp;P1;durP1;ratioP1;P2;durP2;ratioP2
61254;SDS011;47128;47.530;8.584;2022-09-09T00:06:57;6.50;;;1.98;;
61254;SDS011;47128;47.530;8.584;2022-09-09T00:12:19;7.35;;;2.28;;
61254;SDS011;47128;47.530;8.584;2022-09-09T00:15:02;5.70;;;1.98;;
61254;SDS011;47128;47.530;8.584;2022-09-09T00:17:38;4.25;;;1.70;;
61254;SDS011;47128;47.530;8.584;2022-09-09T00:20:20;4.13;;;1.80;;
61254;SDS011;47128;47.530;8.584;2022-09-09T00:23:14;8.02;;;2.80;;
61254;SDS011;47128;47.530;8.584;2022-09-09T00:28:25;4.40;;;1.83;;
61254;SDS011;47128;47.530;8.584;2022-09-09T00:30:52;6.20;;;1.90;;
61254;SDS011;47128;47.530;8.584;2022-09-09T00:33:22;11.05;;;2.13;;
61254;SDS011;47128;47.530;8.584;2022-09-09T00:35:59;6.60;;;2.10;;
61254;SDS011;47128;47.530;8.584;2022-09-09T00:38:33;5.18;;;1.63;;
61254;SDS011;47128;47.530;8.584;2022-09-09T00:41:03;5.97;;;1.67;;
61254;SDS011;47128;47.530;8.584;2022-09-09T00:43:35;3.92;;;1.55;;
61254;SDS011;47128;47.530;8.584;2022-09-09T00:46:11;4.70;;;1.70;;
61254;SDS011;47128;47.530;8.584;2022-09-09T00:51:27;5.10;;;2.03;;
61254;SDS011;47128;47.530;8.584;2022-09-09T00:56:46;3.88;;;2.08;;
61254;SDS011;47128;47.530;8.584;2022-09-09T00:59:26;5.15;;;1.80;;
61254;SDS011;47128;47.530;8.584;2022-09-09T01:02:01;5.10;;;1.83;;
61254;SDS011;47128;47.530;8.584;2022-09-09T01:04:34;2.92;;;1.98;;
61254;SDS011;47128;47.530;8.584;2022-09-09T01:07:16;4.72;;;1.73;;
61254;SDS011;47128;47.530;8.584;2022-09-09T01:12:23;9.82;;;2.17;;
61254;SDS011;47128;47.530;8.584;2022-09-09T01:15:11;5.68;;;1.88;;
61254;SDS011;47128;47.530;8.584;2022-09-09T01:20:55;5.05;;;1.92;;
61254;SDS011;47128;47.530;8.584;2022-09-09T01:28:39;6.15;;;1.95;;
61254;SDS011;47128;47.530;8.584;2022-09-09T01:31:07;4.72;;;1.77;;
61254;SDS011;47128;47.530;8.584;2022-09-09T01:33:37;5.85;;;1.77;;
61254;SDS011;47128;47.530;8.584;2022-09-09T01:38:38;3.88;;;1.70;;
61254;SDS011;47128;47.530;8.584;2022-09-09T01:41:04;5.18;;;1.73;;
61254;SDS011;47128;47.530;8.584;2022-09-09T01:43:30;6.20;;;2.08;;
61254;SDS011;47128;47.530;8.584;2022-09-09T01:45:56;4.05;;;1.58;;
61254;SDS011;47128;47.530;8.584;2022-09-09T01:48:25;3.65;;;1.52;;
61254;SDS011;47128;47.530;8.584;2022-09-09T01:50:52;4.40;;;1.70;;
61254;SDS011;47128;47.530;8.584;2022-09-09T01:53:18;4.15;;;2.17;;
61254;SDS011;47128;47.530;8.584;2022-09-09T01:56:28;6.32;;;2.20;;
61254;SDS011;47128;47.530;8.584;2022-09-09T02:04:38;4.75;;;1.80;;
61254;SDS011;47128;47.530;8.584;2022-09-09T02:07:14;3.08;;;1.52;;
61254;SDS011;47128;47.530;8.584;2022-09-09T02:10:02;3.55;;;1.67;;
61254;SDS011;47128;47.530;8.584;2022-09-09T02:12:38;3.97;;;1.70;;
61254;SDS011;47128;47.530;8.584;2022-09-09T02:15:11;6.68;;;1.98;;
61254;SDS011;47128;47.530;8.584;2022-09-09T02:17:51;5.43;;;1.80;;
61254;SDS011;47128;47.530;8.584;2022-09-09T02:20:19;3.28;;;1.73;;
61254;SDS011;47128;47.530;8.584;2022-09-09T02:22:46;4.22;;;1.60;;
61254;SDS011;47128;47.530;8.584;2022-09-09T02:25:15;4.82;;;1.88;;
61254;SDS011;47128;47.530;8.584;2022-09-09T02:27:44;4.03;;;1.73;;
61254;SDS011;47128;47.530;8.584;2022-09-09T02:30:12;3.50;;;1.90;;
61254;SDS011;47128;47.530;8.584;2022-09-09T02:32:38;5.40;;;1.92;;
61254;SDS011;47128;47.530;8.584;2022-09-09T02:35:08;4.68;;;1.73;;
61254;SDS011;47128;47.530;8.584;2022-09-09T02:37:37;5.57;;;1.77;;
61254;SDS011;47128;47.530;8.584;2022-09-09T02:40:05;3.58;;;1.95;;
61254;SDS011;47128;47.530;8.584;2022-09-09T02:42:38;4.68;;;1.65;;
61254;SDS011;47128;47.530;8.584;2022-09-09T02:45:08;5.22;;;2.22;;
61254;SDS011;47128;47.530;8.584;2022-09-09T02:47:37;2.35;;;1.63;;
61254;SDS011;47128;47.530;8.584;2022-09-09T02:50:13;5.95;;;1.45;;
61254;SDS011;47128;47.530;8.584;2022-09-09T02:53:00;3.00;;;1.73;;
61254;SDS011;47128;47.530;8.584;2022-09-09T02:55:57;5.78;;;2.08;;
61254;SDS011;47128;47.530;8.584;2022-09-09T02:58:29;4.55;;;1.70;;
61254;SDS011;47128;47.530;8.584;2022-09-09T03:00:54;3.97;;;1.38;;
61254;SDS011;47128;47.530;8.584;2022-09-09T03:03:22;4.70;;;1.88;;
61254;SDS011;47128;47.530;8.584;2022-09-09T03:05:48;4.68;;;2.00;;
61254;SDS011;47128;47.530;8.584;2022-09-09T03:08:14;4.68;;;1.75;;
61254;SDS011;47128;47.530;8.584;2022-09-09T03:10:40;8.90;;;2.13;;
61254;SDS011;47128;47.530;8.584;2022-09-09T03:13:06;4.20;;;1.55;;
61254;SDS011;47128;47.530;8.584;2022-09-09T03:15:33;4.22;;;1.60;;
61254;SDS011;47128;47.530;8.584;2022-09-09T03:17:59;5.53;;;1.50;;
61254;SDS011;47128;47.530;8.584;2022-09-09T03:20:26;4.53;;;1.55;;
61254;SDS011;47128;47.530;8.584;2022-09-09T03:22:53;4.63;;;1.77;;
61254;SDS011;47128;47.530;8.584;2022-09-09T03:25:20;6.85;;;2.00;;
61254;SDS011;47128;47.530;8.584;2022-09-09T03:27:48;2.92;;;1.60;;
61254;SDS011;47128;47.530;8.584;2022-09-09T03:30:15;2.15;;;1.58;;
61254;SDS011;47128;47.530;8.584;2022-09-09T03:32:41;6.18;;;1.77;;
61254;SDS011;47128;47.530;8.584;2022-09-09T03:35:06;3.55;;;1.92;;
61254;SDS011;47128;47.530;8.584;2022-09-09T03:37:33;4.25;;;1.90;;
61254;SDS011;47128;47.530;8.584;2022-09-09T03:39:58;4.35;;;1.77;;
61254;SDS011;47128;47.530;8.584;2022-09-09T03:42:24;4.72;;;1.73;;
61254;SDS011;47128;47.530;8.584;2022-09-09T03:44:50;8.32;;;2.10;;
61254;SDS011;47128;47.530;8.584;2022-09-09T03:47:19;4.85;;;1.85;;
61254;SDS011;47128;47.530;8.584;2022-09-09T03:49:46;6.45;;;1.50;;
61254;SDS011;47128;47.530;8.584;2022-09-09T03:52:13;6.25;;;1.80;;
61254;SDS011;47128;47.530;8.584;2022-09-09T03:54:39;2.97;;;1.70;;
61254;SDS011;47128;47.530;8.584;2022-09-09T03:57:06;5.03;;;1.98;;
61254;SDS011;47128;47.530;8.584;2022-09-09T03:59:32;10.23;;;2.15;;
61254;SDS011;47128;47.530;8.584;2022-09-09T04:01:57;3.17;;;1.50;;
61254;SDS011;47128;47.530;8.584;2022-09-09T04:04:24;4.95;;;2.03;;
61254;SDS011;47128;47.530;8.584;2022-09-09T04:06:51;6.25;;;2.10;;
61254;SDS011;47128;47.530;8.584;2022-09-09T04:09:17;5.82;;;1.95;;
61254;SDS011;47128;47.530;8.584;2022-09-09T04:11:42;5.10;;;2.38;;
61254;SDS011;47128;47.530;8.584;2022-09-09T04:14:08;5.35;;;1.67;;
61254;SDS011;47128;47.530;8.584;2022-09-09T04:16:33;4.78;;;1.77;;
61254;SDS011;47128;47.530;8.584;2022-09-09T04:19:01;4.43;;;1.92;;
61254;SDS011;47128;47.530;8.584;2022-09-09T04:21:29;6.97;;;2.05;;
61254;SDS011;47128;47.530;8.584;2022-09-09T04:23:55;4.75;;;1.70;;
61254;SDS011;47128;47.530;8.584;2022-09-09T04:26:21;4.28;;;1.55;;
61254;SDS011;47128;47.530;8.584;2022-09-09T04:28:47;5.47;;;1.80;;
61254;SDS011;47128;47.530;8.584;2022-09-09T04:31:19;5.40;;;1.80;;
61254;SDS011;47128;47.530;8.584;2022-09-09T04:33:48;4.70;;;1.58;;
61254;SDS011;47128;47.530;8.584;2022-09-09T04:36:15;7.68;;;2.00;;
61254;SDS011;47128;47.530;8.584;2022-09-09T04:38:41;4.22;;;2.00;;
61254;SDS011;47128;47.530;8.584;2022-09-09T04:41:06;5.43;;;1.63;;
61254;SDS011;47128;47.530;8.584;2022-09-09T04:43:33;4.05;;;1.70;;
61254;SDS011;47128;47.530;8.584;2022-09-09T04:46:02;5.68;;;1.80;;
61254;SDS011;47128;47.530;8.584;2022-09-09T04:48:28;2.75;;;1.52;;
61254;SDS011;47128;47.530;8.584;2022-09-09T04:50:56;3.85;;;1.80;;
61254;SDS011;47128;47.530;8.584;2022-09-09T04:53:23;3.30;;;1.70;;
61254;SDS011;47128;47.530;8.584;2022-09-09T04:55:50;5.03;;;1.50;;
61254;SDS011;47128;47.530;8.584;2022-09-09T04:58:16;6.03;;;1.73;;
61254;SDS011;47128;47.530;8.584;2022-09-09T05:00:42;4.30;;;1.70;;
61254;SDS011;47128;47.530;8.584;2022-09-09T05:03:07;3.72;;;1.60;;
61254;SDS011;47128;47.530;8.584;2022-09-09T05:05:34;3.70;;;1.67;;
61254;SDS011;47128;47.530;8.584;2022-09-09T05:08:03;4.22;;;1.80;;
61254;SDS011;47128;47.530;8.584;2022-09-09T05:10:31;4.75;;;1.83;;
61254;SDS011;47128;47.530;8.584;2022-09-09T05:12:57;5.05;;;2.22;;
61254;SDS011;47128;47.530;8.584;2022-09-09T05:15:23;4.60;;;2.17;;
61254;SDS011;47128;47.530;8.584;2022-09-09T05:17:48;2.90;;;1.80;;
61254;SDS011;47128;47.530;8.584;2022-09-09T05:20:14;3.17;;;1.70;;
61254;SDS011;47128;47.530;8.584;2022-09-09T05:22:39;4.45;;;1.98;;
61254;SDS011;47128;47.530;8.584;2022-09-09T05:25:05;7.07;;;2.10;;
61254;SDS011;47128;47.530;8.584;2022-09-09T05:27:38;7.93;;;2.00;;
61254;SDS011;47128;47.530;8.584;2022-09-09T05:30:04;6.78;;;2.03;;
61254;SDS011;47128;47.530;8.584;2022-09-09T05:32:30;5.82;;;2.47;;
61254;SDS011;47128;47.530;8.584;2022-09-09T05:34:59;6.60;;;2.17;;
61254;SDS011;47128;47.530;8.584;2022-09-09T05:37:24;4.70;;;2.15;;
61254;SDS011;47128;47.530;8.584;2022-09-09T05:39:50;4.63;;;2.53;;
61254;SDS011;47128;47.530;8.584;2022-09-09T05:42:16;15.93;;;8.15;;
61254;SDS011;47128;47.530;8.584;2022-09-09T05:44:42;4.60;;;1.90;;
61254;SDS011;47128;47.530;8.584;2022-09-09T05:47:08;11.80;;;6.00;;
61254;SDS011;47128;47.530;8.584;2022-09-09T05:49:34;3.72;;;1.67;;
61254;SDS011;47128;47.530;8.584;2022-09-09T05:52:00;4.63;;;1.73;;
61254;SDS011;47128;47.530;8.584;2022-09-09T05:54:25;3.97;;;1.73;;
61254;SDS011;47128;47.530;8.584;2022-09-09T05:56:51;6.75;;;1.70;;
61254;SDS011;47128;47.530;8.584;2022-09-09T05:59:18;5.30;;;1.77;;
61254;SDS011;47128;47.530;8.584;2022-09-09T06:01:44;3.85;;;2.10;;
61254;SDS011;47128;47.530;8.584;2022-09-09T06:04:12;3.20;;;1.77;;
61254;SDS011;47128;47.530;8.584;2022-09-09T06:09:24;2.08;;;1.52;;
61254;SDS011;47128;47.530;8.584;2022-09-09T06:11:50;4.40;;;1.65;;
61254;SDS011;47128;47.530;8.584;2022-09-09T06:14:20;3.50;;;1.60;;
61254;SDS011;47128;47.530;8.584;2022-09-09T06:16:46;3.83;;;1.65;;
61254;SDS011;47128;47.530;8.584;2022-09-09T06:19:12;4.60;;;1.85;;
61254;SDS011;47128;47.530;8.584;2022-09-09T06:21:38;4.10;;;1.65;;
61254;SDS011;47128;47.530;8.584;2022-09-09T06:24:05;2.70;;;1.38;;
61254;SDS011;47128;47.530;8.584;2022-09-09T06:26:42;3.92;;;1.70;;
61254;SDS011;47128;47.530;8.584;2022-09-09T06:29:08;2.65;;;1.70;;
61254;SDS011;47128;47.530;8.584;2022-09-09T06:31:35;2.75;;;1.52;;
61254;SDS011;47128;47.530;8.584;2022-09-09T06:34:04;5.22;;;1.67;;
61254;SDS011;47128;47.530;8.584;2022-09-09T06:36:33;3.67;;;1.65;;
61254;SDS011;47128;47.530;8.584;2022-09-09T06:39:02;4.88;;;1.70;;
61254;SDS011;47128;47.530;8.584;2022-09-09T06:41:29;3.20;;;1.70;;
61254;SDS011;47128;47.530;8.584;2022-09-09T06:43:55;4.43;;;1.70;;
61254;SDS011;47128;47.530;8.584;2022-09-09T06:46:25;4.57;;;1.83;;
61254;SDS011;47128;47.530;8.584;2022-09-09T06:51:28;2.65;;;1.73;;
61254;SDS011;47128;47.530;8.584;2022-09-09T06:53:56;5.28;;;1.60;;
61254;SDS011;47128;47.530;8.584;2022-09-09T06:56:25;4.85;;;1.88;;
61254;SDS011;47128;47.530;8.584;2022-09-09T06:58:53;5.82;;;2.10;;
61254;SDS011;47128;47.530;8.584;2022-09-09T07:01:20;2.13;;;1.80;;
61254;SDS011;47128;47.530;8.584;2022-09-09T07:03:49;2.30;;;1.30;;
61254;SDS011;47128;47.530;8.584;2022-09-09T07:07:03;2.85;;;1.50;;
61254;SDS011;47128;47.530;8.584;2022-09-09T07:09:32;1.88;;;1.52;;
61254;SDS011;47128;47.530;8.584;2022-09-09T07:11:58;2.90;;;1.63;;
61254;SDS011;47128;47.530;8.584;2022-09-09T07:14:36;4.88;;;1.40;;
61254;SDS011;47128;47.530;8.584;2022-09-09T07:17:28;2.97;;;1.35;;
61254;SDS011;47128;47.530;8.584;2022-09-09T07:20:14;3.25;;;1.27;;
61254;SDS011;47128;47.530;8.584;2022-09-09T07:29:04;2.65;;;1.33;;
61254;SDS011;47128;47.530;8.584;2022-09-09T07:31:31;3.72;;;1.50;;
61254;SDS011;47128;47.530;8.584;2022-09-09T07:34:01;1.95;;;1.38;;
61254;SDS011;47128;47.530;8.584;2022-09-09T07:36:29;4.18;;;1.15;;
61254;SDS011;47128;47.530;8.584;2022-09-09T07:38:57;3.88;;;1.63;;
61254;SDS011;47128;47.530;8.584;2022-09-09T07:41:43;5.40;;;1.10;;
61254;SDS011;47128;47.530;8.584;2022-09-09T07:44:16;2.53;;;1.00;;
61254;SDS011;47128;47.530;8.584;2022-09-09T07:46:48;3.80;;;1.17;;
61254;SDS011;47128;47.530;8.584;2022-09-09T07:49:22;2.88;;;1.30;;
61254;SDS011;47128;47.530;8.584;2022-09-09T07:52:04;2.70;;;1.10;;
61254;SDS011;47128;47.530;8.584;2022-09-09T07:54:44;2.58;;;1.23;;
61254;SDS011;47128;47.530;8.584;2022-09-09T07:57:14;2.20;;;0.95;;
61254;SDS011;47128;47.530;8.584;2022-09-09T07:59:42;1.42;;;0.90;;
61254;SDS011;47128;47.530;8.584;2022-09-09T08:02:14;1.02;;;0.90;;
61254;SDS011;47128;47.530;8.584;2022-09-09T08:04:46;3.35;;;1.10;;
61254;SDS011;47128;47.530;8.584;2022-09-09T08:07:12;2.35;;;1.00;;
61254;SDS011;47128;47.530;8.584;2022-09-09T08:09:41;2.58;;;1.13;;
61254;SDS011;47128;47.530;8.584;2022-09-09T08:12:10;3.20;;;0.98;;
61254;SDS011;47128;47.530;8.584;2022-09-09T08:14:39;1.98;;;1.08;;
61254;SDS011;47128;47.530;8.584;2022-09-09T08:17:05;3.70;;;1.10;;
61254;SDS011;47128;47.530;8.584;2022-09-09T08:19:31;3.22;;;1.02;;
61254;SDS011;47128;47.530;8.584;2022-09-09T08:22:03;2.25;;;1.17;;
61254;SDS011;47128;47.530;8.584;2022-09-09T08:24:33;1.38;;;1.20;;
61254;SDS011;47128;47.530;8.584;2022-09-09T08:27:16;1.80;;;1.00;;
61254;SDS011;47128;47.530;8.584;2022-09-09T08:29:52;2.13;;;0.80;;
61254;SDS011;47128;47.530;8.584;2022-09-09T08:32:22;4.40;;;0.90;;
61254;SDS011;47128;47.530;8.584;2022-09-09T08:35:15;3.20;;;1.02;;
61254;SDS011;47128;47.530;8.584;2022-09-09T08:40:22;3.25;;;0.80;;
61254;SDS011;47128;47.530;8.584;2022-09-09T08:49:12;5.88;;;1.00;;
61254;SDS011;47128;47.530;8.584;2022-09-09T08:52:02;4.72;;;1.02;;
61254;SDS011;47128;47.530;8.584;2022-09-09T08:57:39;5.32;;;1.20;;
61254;SDS011;47128;47.530;8.584;2022-09-09T09:00:05;2.22;;;0.93;;
61254;SDS011;47128;47.530;8.584;2022-09-09T09:05:59;3.97;;;1.00;;
61254;SDS011;47128;47.530;8.584;2022-09-09T09:15:26;2.67;;;0.80;;
61254;SDS011;47128;47.530;8.584;2022-09-09T09:18:04;2.67;;;1.00;;
61254;SDS011;47128;47.530;8.584;2022-09-09T09:27:14;4.95;;;1.10;;
61254;SDS011;47128;47.530;8.584;2022-09-09T09:29:54;3.03;;;0.90;;
61254;SDS011;47128;47.530;8.584;2022-09-09T09:32:33;3.35;;;1.00;;
61254;SDS011;47128;47.530;8.584;2022-09-09T09:35:14;3.33;;;0.85;;
61254;SDS011;47128;47.530;8.584;2022-09-09T09:37:59;4.35;;;1.27;;
61254;SDS011;47128;47.530;8.584;2022-09-09T09:40:48;4.40;;;1.13;;
61254;SDS011;47128;47.530;8.584;2022-09-09T09:46:32;2.25;;;0.80;;
61254;SDS011;47128;47.530;8.584;2022-09-09T09:49:03;2.65;;;1.00;;
61254;SDS011;47128;47.530;8.584;2022-09-09T09:51:32;3.10;;;1.00;;
61254;SDS011;47128;47.530;8.584;2022-09-09T09:54:15;3.75;;;0.90;;
61254;SDS011;47128;47.530;8.584;2022-09-09T09:56:46;4.65;;;0.95;;
61254;SDS011;47128;47.530;8.584;2022-09-09T09:59:22;4.63;;;0.90;;
61254;SDS011;47128;47.530;8.584;2022-09-09T10:02:21;3.85;;;0.82;;
61254;SDS011;47128;47.530;8.584;2022-09-09T10:05:04;3.70;;;1.00;;
61254;SDS011;47128;47.530;8.584;2022-09-09T10:07:42;3.78;;;1.10;;
61254;SDS011;47128;47.530;8.584;2022-09-09T10:10:12;8.13;;;1.58;;
61254;SDS011;47128;47.530;8.584;2022-09-09T10:36:33;3.38;;;1.42;;
61254;SDS011;47128;47.530;8.584;2022-09-09T10:42:05;4.80;;;1.40;;
61254;SDS011;47128;47.530;8.584;2022-09-09T10:54:57;4.60;;;1.25;;
61254;SDS011;47128;47.530;8.584;2022-09-09T10:57:59;4.45;;;1.40;;
61254;SDS011;47128;47.530;8.584;2022-09-09T11:07:23;2.85;;;1.20;;
61254;SDS011;47128;47.530;8.584;2022-09-09T11:24:02;2.85;;;1.50;;
61254;SDS011;47128;47.530;8.584;2022-09-09T11:34:09;4.22;;;1.00;;
61254;SDS011;47128;47.530;8.584;2022-09-09T11:39:35;4.53;;;0.90;;
61254;SDS011;47128;47.530;8.584;2022-09-09T11:44:40;3.40;;;0.98;;
61254;SDS011;47128;47.530;8.584;2022-09-09T11:47:19;2.67;;;1.15;;
61254;SDS011;47128;47.530;8.584;2022-09-09T11:49:54;3.40;;;1.15;;
61254;SDS011;47128;47.530;8.584;2022-09-09T11:52:42;6.18;;;1.38;;
61254;SDS011;47128;47.530;8.584;2022-09-09T11:55:31;1.77;;;1.02;;
61254;SDS011;47128;47.530;8.584;2022-09-09T12:00:38;3.17;;;0.90;;
61254;SDS011;47128;47.530;8.584;2022-09-09T12:03:50;2.45;;;0.88;;
61254;SDS011;47128;47.530;8.584;2022-09-09T12:10:01;3.30;;;0.70;;
61254;SDS011;47128;47.530;8.584;2022-09-09T12:16:31;5.85;;;1.58;;
61254;SDS011;47128;47.530;8.584;2022-09-09T12:25:12;1.95;;;0.82;;
61254;SDS011;47128;47.530;8.584;2022-09-09T12:28:15;3.40;;;1.10;;
61254;SDS011;47128;47.530;8.584;2022-09-09T12:34:09;1.23;;;0.63;;
61254;SDS011;47128;47.530;8.584;2022-09-09T12:37:05;3.10;;;0.65;;
61254;SDS011;47128;47.530;8.584;2022-09-09T12:42:45;2.53;;;0.70;;
61254;SDS011;47128;47.530;8.584;2022-09-09T12:45:16;4.75;;;1.08;;
61254;SDS011;47128;47.530;8.584;2022-09-09T12:48:12;2.40;;;0.88;;
61254;SDS011;47128;47.530;8.584;2022-09-09T12:50:50;5.57;;;0.82;;
61254;SDS011;47128;47.530;8.584;2022-09-09T12:53:26;3.60;;;0.80;;
61254;SDS011;47128;47.530;8.584;2022-09-09T13:01:59;2.92;;;0.80;;
61254;SDS011;47128;47.530;8.584;2022-09-09T13:04:28;3.60;;;1.10;;
61254;SDS011;47128;47.530;8.584;2022-09-09T13:07:06;0.70;;;0.70;;
61254;SDS011;47128;47.530;8.584;2022-09-09T13:09:39;1.48;;;0.73;;
61254;SDS011;47128;47.530;8.584;2022-09-09T13:12:33;2.20;;;0.75;;
61254;SDS011;47128;47.530;8.584;2022-09-09T13:14:59;2.67;;;0.80;;
61254;SDS011;47128;47.530;8.584;2022-09-09T13:17:34;1.17;;;0.60;;
61254;SDS011;47128;47.530;8.584;2022-09-09T13:20:01;1.58;;;0.63;;
61254;SDS011;47128;47.530;8.584;2022-09-09T13:22:46;1.02;;;0.57;;
61254;SDS011;47128;47.530;8.584;2022-09-09T13:33:43;0.70;;;0.52;;
61254;SDS011;47128;47.530;8.584;2022-09-09T13:42:43;2.17;;;0.88;;
61254;SDS011;47128;47.530;8.584;2022-09-09T13:45:30;2.42;;;0.75;;
61254;SDS011;47128;47.530;8.584;2022-09-09T13:48:08;2.95;;;0.70;;
61254;SDS011;47128;47.530;8.584;2022-09-09T13:50:37;1.80;;;0.60;;
61254;SDS011;47128;47.530;8.584;2022-09-09T13:55:49;3.85;;;0.77;;
61254;SDS011;47128;47.530;8.584;2022-09-09T13:58:16;1.08;;;0.50;;
61254;SDS011;47128;47.530;8.584;2022-09-09T14:00:45;1.85;;;0.65;;
61254;SDS011;47128;47.530;8.584;2022-09-09T14:03:11;2.20;;;0.80;;
61254;SDS011;47128;47.530;8.584;2022-09-09T14:05:47;2.25;;;0.60;;
61254;SDS011;47128;47.530;8.584;2022-09-09T14:08:24;2.55;;;0.65;;
61254;SDS011;47128;47.530;8.584;2022-09-09T14:10:53;1.25;;;0.50;;
61254;SDS011;47128;47.530;8.584;2022-09-09T14:13:21;2.67;;;0.50;;
61254;SDS011;47128;47.530;8.584;2022-09-09T14:15:49;2.83;;;0.68;;
61254;SDS011;47128;47.530;8.584;2022-09-09T14:18:15;2.28;;;1.00;;
61254;SDS011;47128;47.530;8.584;2022-09-09T14:20:41;1.27;;;0.70;;
61254;SDS011;47128;47.530;8.584;2022-09-09T14:23:09;2.05;;;0.60;;
61254;SDS011;47128;47.530;8.584;2022-09-09T14:25:35;2.72;;;0.80;;
61254;SDS011;47128;47.530;8.584;2022-09-09T14:28:01;4.57;;;0.63;;
61254;SDS011;47128;47.530;8.584;2022-09-09T14:30:27;5.63;;;0.77;;
61254;SDS011;47128;47.530;8.584;2022-09-09T14:32:52;2.38;;;0.70;;
61254;SDS011;47128;47.530;8.584;2022-09-09T14:35:19;4.07;;;0.70;;
61254;SDS011;47128;47.530;8.584;2022-09-09T14:37:44;1.77;;;0.57;;
61254;SDS011;47128;47.530;8.584;2022-09-09T14:40:13;4.28;;;0.88;;
61254;SDS011;47128;47.530;8.584;2022-09-09T14:42:40;4.07;;;0.55;;
61254;SDS011;47128;47.530;8.584;2022-09-09T14:45:06;2.05;;;0.68;;
61254;SDS011;47128;47.530;8.584;2022-09-09T14:47:32;1.35;;;0.65;;
61254;SDS011;47128;47.530;8.584;2022-09-09T14:49:57;2.90;;;0.57;;
61254;SDS011;47128;47.530;8.584;2022-09-09T14:52:23;2.65;;;0.73;;
61254;SDS011;47128;47.530;8.584;2022-09-09T14:54:50;1.95;;;0.60;;
61254;SDS011;47128;47.530;8.584;2022-09-09T14:57:16;3.58;;;0.93;;
61254;SDS011;47128;47.530;8.584;2022-09-09T14:59:41;2.60;;;0.70;;
61254;SDS011;47128;47.530;8.584;2022-09-09T15:02:08;1.17;;;0.60;;
61254;SDS011;47128;47.530;8.584;2022-09-09T15:04:34;3.92;;;0.70;;
61254;SDS011;47128;47.530;8.584;2022-09-09T15:07:01;1.23;;;0.70;;
61254;SDS011;47128;47.530;8.584;2022-09-09T15:09:27;7.13;;;0.70;;
61254;SDS011;47128;47.530;8.584;2022-09-09T15:11:53;2.20;;;0.50;;
61254;SDS011;47128;47.530;8.584;2022-09-09T15:14:18;3.83;;;0.50;;
61254;SDS011;47128;47.530;8.584;2022-09-09T15:16:44;2.25;;;0.70;;
61254;SDS011;47128;47.530;8.584;2022-09-09T15:19:10;0.65;;;0.40;;
61254;SDS011;47128;47.530;8.584;2022-09-09T15:21:36;2.97;;;0.88;;
61254;SDS011;47128;47.530;8.584;2022-09-09T15:24:03;3.15;;;0.57;;
61254;SDS011;47128;47.530;8.584;2022-09-09T15:26:29;1.33;;;0.40;;
61254;SDS011;47128;47.530;8.584;2022-09-09T15:28:55;1.75;;;0.57;;
61254;SDS011;47128;47.530;8.584;2022-09-09T15:31:24;3.22;;;0.47;;
61254;SDS011;47128;47.530;8.584;2022-09-09T15:34:14;2.85;;;0.70;;
61254;SDS011;47128;47.530;8.584;2022-09-09T15:36:43;0.95;;;0.40;;
61254;SDS011;47128;47.530;8.584;2022-09-09T15:39:13;2.28;;;0.50;;
61254;SDS011;47128;47.530;8.584;2022-09-09T15:41:43;2.35;;;0.50;;
61254;SDS011;47128;47.530;8.584;2022-09-09T15:44:11;2.33;;;0.60;;
61254;SDS011;47128;47.530;8.584;2022-09-09T15:46:37;1.75;;;0.55;;
61254;SDS011;47128;47.530;8.584;2022-09-09T15:51:44;1.15;;;0.40;;
61254;SDS011;47128;47.530;8.584;2022-09-09T15:54:12;1.55;;;0.57;;
61254;SDS011;47128;47.530;8.584;2022-09-09T15:56:42;2.22;;;0.70;;
61254;SDS011;47128;47.530;8.584;2022-09-09T15:59:08;1.95;;;0.63;;
61254;SDS011;47128;47.530;8.584;2022-09-09T16:01:36;1.45;;;0.35;;
61254;SDS011;47128;47.530;8.584;2022-09-09T16:04:06;2.75;;;0.52;;
61254;SDS011;47128;47.530;8.584;2022-09-09T16:06:32;1.83;;;0.88;;
61254;SDS011;47128;47.530;8.584;2022-09-09T16:08:58;4.53;;;0.80;;
61254;SDS011;47128;47.530;8.584;2022-09-09T16:11:35;2.45;;;0.45;;
61254;SDS011;47128;47.530;8.584;2022-09-09T16:14:03;2.72;;;0.43;;
61254;SDS011;47128;47.530;8.584;2022-09-09T16:16:30;2.90;;;0.70;;
61254;SDS011;47128;47.530;8.584;2022-09-09T16:18:59;0.85;;;0.65;;
61254;SDS011;47128;47.530;8.584;2022-09-09T16:21:28;1.15;;;0.35;;
61254;SDS011;47128;47.530;8.584;2022-09-09T16:23:55;1.15;;;0.60;;
61254;SDS011;47128;47.530;8.584;2022-09-09T16:26:29;3.67;;;0.50;;
61254;SDS011;47128;47.530;8.584;2022-09-09T16:28:56;3.67;;;1.05;;
61254;SDS011;47128;47.530;8.584;2022-09-09T16:31:23;3.60;;;0.57;;
61254;SDS011;47128;47.530;8.584;2022-09-09T16:33:49;1.95;;;0.82;;
61254;SDS011;47128;47.530;8.584;2022-09-09T16:36:16;4.18;;;0.60;;
61254;SDS011;47128;47.530;8.584;2022-09-09T16:38:44;3.13;;;0.90;;
61254;SDS011;47128;47.530;8.584;2022-09-09T16:41:10;1.25;;;0.70;;
61254;SDS011;47128;47.530;8.584;2022-09-09T16:43:38;3.28;;;0.50;;
61254;SDS011;47128;47.530;8.584;2022-09-09T16:46:17;4.00;;;0.93;;
61254;SDS011;47128;47.530;8.584;2022-09-09T16:48:45;3.40;;;0.50;;
61254;SDS011;47128;47.530;8.584;2022-09-09T16:51:16;1.50;;;0.60;;
61254;SDS011;47128;47.530;8.584;2022-09-09T16:53:44;1.27;;;0.50;;
61254;SDS011;47128;47.530;8.584;2022-09-09T16:56:11;3.83;;;0.80;;
61254;SDS011;47128;47.530;8.584;2022-09-09T16:58:38;3.33;;;1.20;;
61254;SDS011;47128;47.530;8.584;2022-09-09T17:01:04;3.60;;;0.70;;
61254;SDS011;47128;47.530;8.584;2022-09-09T17:03:31;3.42;;;0.70;;
61254;SDS011;47128;47.530;8.584;2022-09-09T17:06:03;4.82;;;0.90;;
61254;SDS011;47128;47.530;8.584;2022-09-09T17:08:34;6.55;;;0.90;;
61254;SDS011;47128;47.530;8.584;2022-09-09T17:11:00;1.98;;;0.68;;
61254;SDS011;47128;47.530;8.584;2022-09-09T17:13:26;9.90;;;1.98;;
61254;SDS011;47128;47.530;8.584;2022-09-09T17:15:51;4.57;;;1.55;;
61254;SDS011;47128;47.530;8.584;2022-09-09T17:18:17;3.17;;;0.90;;
61254;SDS011;47128;47.530;8.584;2022-09-09T17:20:43;1.80;;;0.70;;
61254;SDS011;47128;47.530;8.584;2022-09-09T17:23:09;5.30;;;0.80;;
61254;SDS011;47128;47.530;8.584;2022-09-09T17:25:36;3.10;;;0.80;;
61254;SDS011;47128;47.530;8.584;2022-09-09T17:28:03;2.08;;;0.70;;
61254;SDS011;47128;47.530;8.584;2022-09-09T17:30:29;3.92;;;0.88;;
61254;SDS011;47128;47.530;8.584;2022-09-09T17:32:58;2.47;;;0.80;;
61254;SDS011;47128;47.530;8.584;2022-09-09T17:35:24;4.68;;;1.40;;
61254;SDS011;47128;47.530;8.584;2022-09-09T17:37:52;4.22;;;1.00;;
61254;SDS011;47128;47.530;8.584;2022-09-09T17:40:19;3.50;;;0.90;;
61254;SDS011;47128;47.530;8.584;2022-09-09T17:42:45;4.07;;;0.88;;
61254;SDS011;47128;47.530;8.584;2022-09-09T17:45:11;0.82;;;0.60;;
61254;SDS011;47128;47.530;8.584;2022-09-09T17:47:36;1.73;;;0.80;;
61254;SDS011;47128;47.530;8.584;2022-09-09T17:50:02;2.90;;;0.75;;
61254;SDS011;47128;47.530;8.584;2022-09-09T17:52:28;2.80;;;0.77;;
61254;SDS011;47128;47.530;8.584;2022-09-09T17:54:55;2.72;;;0.77;;
61254;SDS011;47128;47.530;8.584;2022-09-09T17:57:21;6.35;;;1.30;;
61254;SDS011;47128;47.530;8.584;2022-09-09T17:59:47;4.70;;;0.88;;
61254;SDS011;47128;47.530;8.584;2022-09-09T18:02:13;2.88;;;0.65;;
61254;SDS011;47128;47.530;8.584;2022-09-09T18:04:39;1.92;;;0.65;;
61254;SDS011;47128;47.530;8.584;2022-09-09T18:07:06;3.40;;;0.73;;
61254;SDS011;47128;47.530;8.584;2022-09-09T18:09:32;4.18;;;0.65;;
61254;SDS011;47128;47.530;8.584;2022-09-09T18:11:58;2.42;;;0.63;;
61254;SDS011;47128;47.530;8.584;2022-09-09T18:14:25;1.42;;;0.77;;
61254;SDS011;47128;47.530;8.584;2022-09-09T18:16:54;1.42;;;0.52;;
61254;SDS011;47128;47.530;8.584;2022-09-09T18:19:22;1.63;;;0.60;;
61254;SDS011;47128;47.530;8.584;2022-09-09T18:21:49;1.35;;;0.60;;
61254;SDS011;47128;47.530;8.584;2022-09-09T18:24:16;3.05;;;0.60;;
61254;SDS011;47128;47.530;8.584;2022-09-09T18:26:48;1.67;;;0.50;;
61254;SDS011;47128;47.530;8.584;2022-09-09T18:29:15;1.95;;;0.60;;